Time;durP1;ratioP1;P1;durP2;ratioP2;P2;SDS_P1;SDS_P2;PMS_P1;PMS_P2;Temp;Humidity;BMP_temperature;BMP_pressure;BME280_temperature;BME280_humidity;BME280_pressure;Samples;Min_cycle;Max_cycle;Signal;HPM_P1;HPM_P2
2022/03/12 00:04:53;;;;;;;22.30;10.63;;;;;;;;;;5038739;28;20046;-85
2022/03/12 00:07:19;;;;;;;22.00;11.43;;;;;;;;;;5021840;28;20049;-86
2022/03/12 00:09:45;;;;;;;25.90;10.70;;;;;;;;;;5038716;28;20063;-87
2022/03/12 00:12:13;;;;;;;27.95;11.80;;;;;;;;;;5192408;22;20506;-84
2022/03/12 00:14:41;;;;;;;22.08;11.63;;;;;;;;;;5018247;28;20018;-85
2022/03/12 00:17:07;;;;;;;23.20;11.82;;;;;;;;;;5003425;28;20042;-88
2022/03/12 00:19:33;;;;;;;21.88;11.35;;;;;;;;;;5018741;28;20025;-84
2022/03/12 00:22:03;;;;;;;24.55;12.00;;;;;;;;;;5000145;28;20581;-86
2022/03/12 00:24:30;;;;;;;19.88;10.65;;;;;;;;;;5018031;28;20049;-84
2022/03/12 00:26:59;;;;;;;28.08;12.10;;;;;;;;;;5018184;28;20113;-85
2022/03/12 00:29:26;;;;;;;20.27;10.50;;;;;;;;;;4999766;28;20030;-85
2022/03/12 00:31:54;;;;;;;25.40;11.07;;;;;;;;;;4999714;28;20768;-85
2022/03/12 00:34:20;;;;;;;21.67;10.70;;;;;;;;;;4999960;28;20026;-84
2022/03/12 00:36:46;;;;;;;26.05;11.82;;;;;;;;;;5023327;28;20026;-84
2022/03/12 00:39:12;;;;;;;25.45;11.00;;;;;;;;;;5039294;28;20018;-83
2022/03/12 00:41:38;;;;;;;20.42;10.55;;;;;;;;;;5037530;28;20026;-90
2022/03/12 00:44:09;;;;;;;23.13;11.27;;;;;;;;;;5032728;28;20058;-84
2022/03/12 00:46:35;;;;;;;19.13;10.85;;;;;;;;;;5020751;28;20045;-84
2022/03/12 00:49:01;;;;;;;26.48;11.43;;;;;;;;;;5002422;28;20041;-86
2022/03/12 00:51:27;;;;;;;20.85;11.32;;;;;;;;;;5019728;28;20028;-86
2022/03/12 00:53:53;;;;;;;27.13;11.52;;;;;;;;;;5019777;28;20504;-87
2022/03/12 00:56:19;;;;;;;21.88;11.23;;;;;;;;;;5039662;23;20050;-81
2022/03/12 00:58:47;;;;;;;21.83;11.38;;;;;;;;;;5034718;28;20030;-81
2022/03/12 01:01:13;;;;;;;21.42;11.10;;;;;;;;;;5019688;28;20118;-81
2022/03/12 01:03:39;;;;;;;20.02;10.60;;;;;;;;;;5003629;28;20486;-82
2022/03/12 01:06:05;;;;;;;22.17;11.63;;;;;;;;;;5038181;28;20018;-81
2022/03/12 01:08:32;;;;;;;22.75;10.73;;;;;;;;;;5036977;28;20105;-82
2022/03/12 01:11:03;;;;;;;33.92;11.88;;;;;;;;;;5019272;28;20029;-83
2022/03/12 01:13:29;;;;;;;20.15;10.32;;;;;;;;;;5024405;28;20381;-81
2022/03/12 01:15:56;;;;;;;26.67;10.70;;;;;;;;;;5017356;28;20111;-82
2022/03/12 01:18:23;;;;;;;24.08;10.20;;;;;;;;;;5016216;28;20424;-82
2022/03/12 01:20:49;;;;;;;18.83;9.57;;;;;;;;;;5037656;28;20018;-83
2022/03/12 01:23:17;;;;;;;17.58;10.10;;;;;;;;;;5037473;28;20025;-83
2022/03/12 01:25:43;;;;;;;17.48;9.95;;;;;;;;;;5037537;28;20041;-82
2022/03/12 01:28:10;;;;;;;18.83;9.75;;;;;;;;;;5037773;28;20489;-82
2022/03/12 01:30:37;;;;;;;21.50;10.05;;;;;;;;;;5023286;28;20036;-83
2022/03/12 01:33:04;;;;;;;17.25;8.98;;;;;;;;;;5017302;28;20033;-80
2022/03/12 01:35:30;;;;;;;17.63;8.70;;;;;;;;;;5017907;28;20037;-81
2022/03/12 01:37:56;;;;;;;19.80;9.38;;;;;;;;;;5018028;28;20678;-81
2022/03/12 01:40:22;;;;;;;17.08;8.30;;;;;;;;;;5000349;28;20029;-80
2022/03/12 01:42:48;;;;;;;25.27;11.07;;;;;;;;;;5000270;28;20018;-82
2022/03/12 01:45:22;;;;;;;17.67;9.45;;;;;;;;;;5017799;28;20026;-82
2022/03/12 01:47:48;;;;;;;19.02;10.07;;;;;;;;;;5017439;28;20026;-81
2022/03/12 01:50:19;;;;;;;22.05;10.18;;;;;;;;;;4999743;28;20025;-81
2022/03/12 01:52:45;;;;;;;16.75;8.98;;;;;;;;;;5016458;28;20029;-82
2022/03/12 01:55:11;;;;;;;18.25;11.10;;;;;;;;;;5016798;28;20494;-82
2022/03/12 01:57:37;;;;;;;20.58;10.07;;;;;;;;;;5016728;28;20030;-81
2022/03/12 02:00:04;;;;;;;19.58;10.20;;;;;;;;;;5016664;28;20022;-81
2022/03/12 02:02:30;;;;;;;18.60;9.80;;;;;;;;;;4998788;28;20026;-82
2022/03/12 02:04:56;;;;;;;22.73;10.82;;;;;;;;;;5014032;28;20033;-81
2022/03/12 02:07:23;;;;;;;19.92;10.48;;;;;;;;;;5034738;28;20018;-81
2022/03/12 02:09:50;;;;;;;20.42;10.95;;;;;;;;;;5018588;28;20029;-81
2022/03/12 02:12:16;;;;;;;21.80;10.55;;;;;;;;;;5035569;28;20029;-82
2022/03/12 02:14:42;;;;;;;23.35;10.43;;;;;;;;;;5036268;28;20104;-82
2022/03/12 02:17:11;;;;;;;23.70;10.45;;;;;;;;;;5011564;28;20064;-81
2022/03/12 02:19:39;;;;;;;20.05;10.40;;;;;;;;;;4998551;28;20033;-82
2022/03/12 02:22:06;;;;;;;19.60;9.75;;;;;;;;;;5016233;28;20029;-81
2022/03/12 02:24:33;;;;;;;20.75;10.75;;;;;;;;;;4998681;28;20109;-81
2022/03/12 02:27:00;;;;;;;23.13;11.38;;;;;;;;;;5015979;28;20025;-82
2022/03/12 02:29:27;;;;;;;20.58;10.52;;;;;;;;;;5015983;28;20033;-81
2022/03/12 02:31:55;;;;;;;20.92;10.20;;;;;;;;;;5015994;28;20421;-82
2022/03/12 02:34:23;;;;;;;17.90;10.32;;;;;;;;;;4998258;28;20081;-81
2022/03/12 02:36:53;;;;;;;26.50;10.32;;;;;;;;;;4997889;28;20068;-82
2022/03/12 02:39:20;;;;;;;19.52;10.45;;;;;;;;;;5016249;28;20022;-82
2022/03/12 02:41:47;;;;;;;20.55;10.82;;;;;;;;;;5015904;28;20022;-82
2022/03/12 02:44:21;;;;;;;21.08;10.13;;;;;;;;;;4998396;28;20014;-82
2022/03/12 02:47:05;;;;;;;20.38;10.02;;;;;;;;;;5016433;28;20417;-82
2022/03/12 02:49:37;;;;;;;17.23;9.68;;;;;;;;;;5016574;28;20197;-82
2022/03/12 02:52:03;;;;;;;23.65;10.52;;;;;;;;;;4998755;28;20056;-82
2022/03/12 02:54:30;;;;;;;20.45;10.07;;;;;;;;;;5016601;28;20030;-83
2022/03/12 02:56:56;;;;;;;20.40;9.65;;;;;;;;;;4998604;28;20056;-83
2022/03/12 02:59:22;;;;;;;20.13;10.27;;;;;;;;;;4999401;28;20030;-83
2022/03/12 03:01:50;;;;;;;20.30;11.35;;;;;;;;;;5016097;28;20026;-82
2022/03/12 03:04:20;;;;;;;19.42;10.40;;;;;;;;;;5028627;28;20044;-82
2022/03/12 03:06:46;;;;;;;20.95;10.05;;;;;;;;;;5037804;28;20049;-82
2022/03/12 03:09:13;;;;;;;22.80;10.98;;;;;;;;;;5039943;28;20037;-82
2022/03/12 03:11:39;;;;;;;19.65;9.65;;;;;;;;;;5040451;28;20041;-82
2022/03/12 03:14:10;;;;;;;17.35;9.73;;;;;;;;;;5040714;28;20028;-81
2022/03/12 03:16:37;;;;;;;17.95;10.85;;;;;;;;;;5038504;28;20044;-81
2022/03/12 03:19:03;;;;;;;18.92;10.82;;;;;;;;;;5024406;28;20055;-81
2022/03/12 03:21:29;;;;;;;21.30;11.05;;;;;;;;;;5017289;28;20081;-82
2022/03/12 03:23:55;;;;;;;27.30;11.98;;;;;;;;;;5020630;28;20354;-82
2022/03/12 03:26:44;;;;;;;25.27;9.65;;;;;;;;;;5020386;28;20042;-82
2022/03/12 03:29:13;;;;;;;19.92;9.98;;;;;;;;;;5020464;28;20034;-82
2022/03/12 03:31:39;;;;;;;21.95;10.60;;;;;;;;;;5019830;28;20045;-82
2022/03/12 03:34:05;;;;;;;20.42;10.27;;;;;;;;;;5023385;28;20022;-81
2022/03/12 03:36:31;;;;;;;20.92;10.38;;;;;;;;;;5024810;28;20049;-81
2022/03/12 03:38:57;;;;;;;22.10;10.88;;;;;;;;;;5024826;28;20026;-81
2022/03/12 03:41:23;;;;;;;18.15;10.57;;;;;;;;;;5023838;28;20086;-82
2022/03/12 03:43:50;;;;;;;17.88;10.20;;;;;;;;;;5024281;28;20026;-82
2022/03/12 03:46:17;;;;;;;17.63;11.18;;;;;;;;;;5022677;28;20018;-81
2022/03/12 03:48:45;;;;;;;21.38;10.90;;;;;;;;;;5004031;28;20026;-83
2022/03/12 03:51:12;;;;;;;22.58;10.50;;;;;;;;;;5004536;28;20125;-82
2022/03/12 03:53:38;;;;;;;19.60;10.95;;;;;;;;;;5023062;28;20026;-82
2022/03/12 03:56:04;;;;;;;24.75;12.15;;;;;;;;;;5022541;28;20073;-82
2022/03/12 03:58:32;;;;;;;17.80;10.40;;;;;;;;;;5021866;28;20125;-82
2022/03/12 04:01:17;;;;;;;21.83;10.93;;;;;;;;;;5003915;28;20073;-82
2022/03/12 04:03:48;;;;;;;22.02;11.10;;;;;;;;;;5026786;28;20013;-83
2022/03/12 04:06:15;;;;;;;20.23;11.18;;;;;;;;;;5022639;28;20079;-82
2022/03/12 04:08:42;;;;;;;22.23;11.82;;;;;;;;;;5040041;28;20443;-83
2022/03/12 04:11:13;;;;;;;22.13;11.20;;;;;;;;;;5023125;28;20030;-82
2022/03/12 04:13:39;;;;;;;;;;;;;;;;;;5041460;28;20022;-82
2022/03/12 04:16:06;;;;;;;18.15;10.07;;;;;;;;;;5039498;28;19905;-82
2022/03/12 04:18:33;;;;;;;21.45;12.18;;;;;;;;;;5022108;28;20026;-82
2022/03/12 04:21:00;;;;;;;26.70;11.82;;;;;;;;;;5001942;28;20026;-82
2022/03/12 04:23:27;;;;;;;22.42;11.85;;;;;;;;;;5019674;28;20034;-82
2022/03/12 04:25:55;;;;;;;20.80;11.18;;;;;;;;;;5019436;28;20022;-82
2022/03/12 04:28:22;;;;;;;20.00;10.98;;;;;;;;;;5019511;28;20490;-83
2022/03/12 04:30:48;;;;;;;21.95;11.30;;;;;;;;;;5019540;28;20470;-83
2022/03/12 04:33:14;;;;;;;23.63;11.93;;;;;;;;;;5000892;28;20033;-82
2022/03/12 04:35:42;;;;;;;18.98;10.90;;;;;;;;;;5018697;28;20129;-82
2022/03/12 04:38:09;;;;;;;22.20;11.60;;;;;;;;;;5018211;28;20022;-82
2022/03/12 04:40:36;;;;;;;24.23;10.45;;;;;;;;;;5017992;28;20109;-81
2022/03/12 04:43:06;;;;;;;22.10;11.80;;;;;;;;;;5000229;28;20125;-83
2022/03/12 04:45:32;;;;;;;19.00;10.95;;;;;;;;;;5018088;28;20041;-82
2022/03/12 04:47:58;;;;;;;22.08;12.00;;;;;;;;;;4999996;28;20121;-82
2022/03/12 04:50:24;;;;;;;23.13;11.80;;;;;;;;;;5017735;28;20108;-82
2022/03/12 04:52:52;;;;;;;20.85;11.48;;;;;;;;;;5018282;28;20022;-82
2022/03/12 04:55:19;;;;;;;21.98;11.13;;;;;;;;;;4999725;28;20041;-81
2022/03/12 04:57:46;;;;;;;23.20;12.05;;;;;;;;;;5013069;28;20088;-82
2022/03/12 05:00:19;;;;;;;22.08;11.35;;;;;;;;;;5002427;28;20452;-82
2022/03/12 05:02:48;;;;;;;22.08;12.13;;;;;;;;;;5006088;28;20489;-83
2022/03/12 05:05:15;;;;;;;24.42;11.18;;;;;;;;;;5033055;28;20432;-81
2022/03/12 05:07:45;;;;;;;21.48;11.95;;;;;;;;;;5033902;28;20022;-81
2022/03/12 05:10:16;;;;;;;21.00;12.13;;;;;;;;;;5032931;28;20025;-82
2022/03/12 05:13:04;;;;;;;18.73;10.63;;;;;;;;;;5023382;28;20044;-83
2022/03/12 05:15:40;;;;;;;22.10;11.93;;;;;;;;;;5025254;28;20440;-82
2022/03/12 05:18:07;;;;;;;20.48;12.13;;;;;;;;;;5042555;28;20042;-84
2022/03/12 05:20:34;;;;;;;21.05;11.02;;;;;;;;;;5018438;28;20022;-83
2022/03/12 05:23:00;;;;;;;21.65;10.68;;;;;;;;;;5020774;28;20021;-81
2022/03/12 05:25:29;;;;;;;26.23;11.63;;;;;;;;;;5032688;28;20014;-83
2022/03/12 05:27:55;;;;;;;22.00;11.93;;;;;;;;;;5024485;28;20547;-83
2022/03/12 05:30:22;;;;;;;19.63;11.07;;;;;;;;;;5054806;28;20037;-82
2022/03/12 05:32:48;;;;;;;22.88;12.25;;;;;;;;;;5055375;28;20093;-82
2022/03/12 05:35:20;;;;;;;19.63;11.02;;;;;;;;;;5047032;28;20111;-82
2022/03/12 05:37:46;;;;;;;22.27;11.50;;;;;;;;;;5043976;28;20117;-82
2022/03/12 05:40:17;;;;;;;21.00;11.05;;;;;;;;;;5010013;28;20405;-82
2022/03/12 05:42:46;;;;;;;21.88;10.93;;;;;;;;;;5023099;28;20026;-82
2022/03/12 05:45:13;;;;;;;24.30;11.63;;;;;;;;;;5020286;28;20097;-82
2022/03/12 05:47:42;;;;;;;24.40;11.48;;;;;;;;;;5002897;28;20029;-81
2022/03/12 05:50:12;;;;;;;20.98;11.00;;;;;;;;;;5019699;28;20018;-82
2022/03/12 05:53:50;;;;;;;25.88;12.13;;;;;;;;;;5020805;28;20032;-83
2022/03/12 05:55:51;;;;;;;21.02;11.02;;;;;;;;;;5105768;23;20053;-83
2022/03/12 06:07:35;;;;;;;19.88;10.50;;;;;;;;;;5022240;28;20037;-83
2022/03/12 06:13:08;;;;;;;28.83;11.82;;;;;;;;;;5020360;28;20072;-82
2022/03/12 06:15:53;;;;;;;20.25;11.05;;;;;;;;;;5020103;28;20506;-83
2022/03/12 06:18:19;;;;;;;17.85;10.15;;;;;;;;;;5005912;28;20026;-82
2022/03/12 06:20:45;;;;;;;19.83;11.15;;;;;;;;;;5001151;28;20027;-83
2022/03/12 06:30:06;;;;;;;;;;;;;;;;;;;;;
2022/03/12 06:33:05;;;;;;;18.38;11.15;;;;;;;;;;4896366;29;20226;-82
2022/03/12 06:35:32;;;;;;;22.38;11.38;;;;;;;;;;4922277;29;20103;-82
2022/03/12 06:37:58;;;;;;;21.83;11.13;;;;;;;;;;4918568;29;20035;-82
2022/03/12 06:40:28;;;;;;;20.27;11.07;;;;;;;;;;4947109;28;20026;-82
2022/03/12 06:42:56;;;;;;;19.08;10.57;;;;;;;;;;4995636;28;20057;-80
2022/03/12 06:45:24;;;;;;;24.67;11.25;;;;;;;;;;4995919;28;20513;-81
2022/03/12 06:47:50;;;;;;;19.27;11.43;;;;;;;;;;4977893;28;20037;-81
2022/03/12 06:50:18;;;;;;;19.67;11.20;;;;;;;;;;4977357;28;20475;-82
2022/03/12 06:52:47;;;;;;;23.88;10.88;;;;;;;;;;4997014;28;20031;-81
2022/03/12 06:55:13;;;;;;;22.23;10.85;;;;;;;;;;4981573;28;20031;-82
2022/03/12 06:57:40;;;;;;;27.70;10.85;;;;;;;;;;5020905;23;20054;-87
2022/03/12 07:00:13;;;;;;;24.92;11.52;;;;;;;;;;5012891;28;20033;-86
2022/03/12 07:02:39;;;;;;;22.85;11.07;;;;;;;;;;5017617;28;20112;-87
2022/03/12 07:05:05;;;;;;;18.05;10.23;;;;;;;;;;5015046;28;20046;-85
2022/03/12 07:07:32;;;;;;;19.83;11.18;;;;;;;;;;4997486;28;20049;-87
2022/03/12 07:09:58;;;;;;;18.83;9.70;;;;;;;;;;5013187;28;20045;-87
2022/03/12 07:12:24;;;;;;;18.27;10.18;;;;;;;;;;5015626;28;20030;-86
2022/03/12 07:14:50;;;;;;;24.15;10.57;;;;;;;;;;5016812;28;20065;-83
2022/03/12 07:24:41;;;;;;;27.35;10.82;;;;;;;;;;4923158;28;20045;-84
2022/03/12 07:27:26;;;;;;;22.02;11.88;;;;;;;;;;4998166;28;20039;-83
2022/03/12 07:29:52;;;;;;;18.98;9.88;;;;;;;;;;4975208;28;20031;-84
2022/03/12 07:38:23;;;;;;;18.77;10.57;;;;;;;;;;5093265;22;20045;-86
2022/03/12 07:40:49;;;;;;;18.15;10.52;;;;;;;;;;5036892;28;20060;-86
2022/03/12 07:43:23;;;;;;;15.07;9.50;;;;;;;;;;5041158;28;20022;-86
2022/03/12 07:48:57;;;;;;;20.65;10.32;;;;;;;;;;4957612;28;20027;-86
2022/03/12 07:51:36;;;;;;;;;;;;;;;;;;;;;
2022/03/12 07:54:04;;;;;;;21.60;11.52;;;;;;;;;;5009144;28;20106;-84
2022/03/12 07:59:44;;;;;;;22.35;10.73;;;;;;;;;;5013539;28;20038;-87
2022/03/12 08:02:24;;;;;;;19.23;10.93;;;;;;;;;;5003393;28;20100;-85
2022/03/12 08:04:53;;;;;;;20.45;10.98;;;;;;;;;;5003234;28;20025;-86
2022/03/12 08:07:20;;;;;;;23.02;11.32;;;;;;;;;;5036114;23;20118;-86
2022/03/12 08:09:46;;;;;;;24.42;11.52;;;;;;;;;;5021827;28;20389;-84
2022/03/12 08:12:16;;;;;;;26.23;11.75;;;;;;;;;;5021139;28;20036;-86
2022/03/12 08:14:44;;;;;;;20.58;11.52;;;;;;;;;;5020932;28;20382;-85
2022/03/12 08:17:10;;;;;;;18.05;10.35;;;;;;;;;;5013195;28;20037;-85
2022/03/12 08:19:37;;;;;;;21.27;10.82;;;;;;;;;;4991757;28;20082;-85
2022/03/12 08:22:04;;;;;;;17.85;9.73;;;;;;;;;;4980046;28;20398;-85
2022/03/12 08:24:30;;;;;;;21.02;11.20;;;;;;;;;;4979852;28;20022;-84
2022/03/12 08:26:59;;;;;;;21.25;10.55;;;;;;;;;;4961935;28;20468;-84
2022/03/12 08:29:25;;;;;;;23.92;9.93;;;;;;;;;;4980263;28;20027;-84
2022/03/12 08:31:51;;;;;;;24.42;10.10;;;;;;;;;;4979100;28;20242;-83
2022/03/12 08:34:17;;;;;;;20.05;9.98;;;;;;;;;;4979754;28;20419;-86
2022/03/12 08:36:45;;;;;;;25.08;9.95;;;;;;;;;;4961954;28;20073;-84
2022/03/12 08:39:12;;;;;;;22.17;11.13;;;;;;;;;;4980151;28;20046;-85
2022/03/12 08:41:38;;;;;;;18.67;9.70;;;;;;;;;;4963042;28;20041;-86
2022/03/12 08:44:06;;;;;;;22.17;10.63;;;;;;;;;;4979608;28;20043;-85
2022/03/12 08:46:32;;;;;;;18.70;10.05;;;;;;;;;;4983454;28;20033;-83
2022/03/12 08:48:58;;;;;;;15.73;9.25;;;;;;;;;;4999059;28;20030;-87
2022/03/12 08:51:24;;;;;;;18.13;8.93;;;;;;;;;;4980661;28;20026;-85
2022/03/12 08:53:50;;;;;;;24.90;9.75;;;;;;;;;;4998469;28;20371;-86
2022/03/12 08:56:16;;;;;;;20.45;9.68;;;;;;;;;;4980833;28;20030;-87
2022/03/12 08:58:42;;;;;;;19.45;10.00;;;;;;;;;;4998687;28;20030;-87
2022/03/12 09:01:08;;;;;;;19.73;9.60;;;;;;;;;;4996913;28;20061;-86
2022/03/12 09:03:38;;;;;;;15.52;8.93;;;;;;;;;;4997437;28;20022;-84
2022/03/12 09:06:04;;;;;;;18.02;9.80;;;;;;;;;;4998453;28;20042;-85
2022/03/12 09:08:31;;;;;;;14.57;9.98;;;;;;;;;;4981219;28;20038;-85
2022/03/12 09:10:58;;;;;;;16.88;9.20;;;;;;;;;;4998348;28;20026;-86
2022/03/12 09:13:25;;;;;;;20.58;10.48;;;;;;;;;;4980237;28;20030;-85
2022/03/12 09:15:54;;;;;;;16.30;9.98;;;;;;;;;;4980117;28;20030;-87
2022/03/12 09:18:20;;;;;;;22.60;10.63;;;;;;;;;;4981621;28;20046;-84
2022/03/12 09:20:47;;;;;;;18.38;10.85;;;;;;;;;;4960253;28;20104;-84
2022/03/12 09:23:21;;;;;;;20.95;10.20;;;;;;;;;;4978623;28;20545;-85
2022/03/12 09:25:48;;;;;;;20.05;10.80;;;;;;;;;;4977830;28;20105;-87
2022/03/12 09:28:14;;;;;;;19.02;10.15;;;;;;;;;;4977632;28;20439;-85
2022/03/12 09:30:40;;;;;;;16.38;9.77;;;;;;;;;;4978270;28;20074;-84
2022/03/12 09:33:07;;;;;;;19.13;10.00;;;;;;;;;;4986190;28;20116;-88
2022/03/12 09:35:33;;;;;;;19.42;9.40;;;;;;;;;;4996115;28;20066;-85
2022/03/12 09:37:59;;;;;;;15.02;9.00;;;;;;;;;;5000089;28;20038;-83
2022/03/12 09:40:25;;;;;;;14.32;9.13;;;;;;;;;;4999883;28;20042;-81
2022/03/12 09:42:51;;;;;;;15.13;8.20;;;;;;;;;;4981725;28;20030;-85
2022/03/12 09:45:20;;;;;;;14.43;9.68;;;;;;;;;;4980354;28;20109;-85
2022/03/12 09:47:46;;;;;;;14.07;8.00;;;;;;;;;;4998108;28;20030;-84
2022/03/12 09:50:12;;;;;;;16.25;8.35;;;;;;;;;;4997379;28;20159;-86
2022/03/12 09:52:38;;;;;;;14.82;8.07;;;;;;;;;;4998060;28;20445;-85
2022/03/12 09:55:13;;;;;;;13.75;9.02;;;;;;;;;;4997247;28;20054;-84
2022/03/12 09:57:40;;;;;;;11.98;8.27;;;;;;;;;;4998705;28;20046;-81
2022/03/12 10:00:06;;;;;;;13.98;8.80;;;;;;;;;;4978399;28;20090;-84
2022/03/12 10:02:33;;;;;;;19.40;9.30;;;;;;;;;;4994654;28;20394;-84
2022/03/12 10:04:59;;;;;;;14.90;8.10;;;;;;;;;;4994586;28;20022;-84
2022/03/12 10:07:25;;;;;;;17.70;8.52;;;;;;;;;;4978507;28;20164;-84
2022/03/12 10:09:51;;;;;;;14.70;8.75;;;;;;;;;;4979555;28;20030;-83
2022/03/12 10:12:19;;;;;;;16.67;9.05;;;;;;;;;;4997012;28;20022;-85
2022/03/12 10:14:48;;;;;;;13.75;8.07;;;;;;;;;;4997727;28;20029;-84
2022/03/12 10:17:14;;;;;;;11.75;7.63;;;;;;;;;;4990639;28;20487;-87
2022/03/12 10:19:41;;;;;;;15.13;8.68;;;;;;;;;;4960936;28;20073;-84
2022/03/12 10:22:09;;;;;;;13.45;8.40;;;;;;;;;;4976611;28;20019;-84
2022/03/12 10:24:35;;;;;;;11.38;7.70;;;;;;;;;;4958870;28;20078;-84
2022/03/12 10:27:01;;;;;;;14.10;7.57;;;;;;;;;;4977351;28;20386;-84
2022/03/12 10:29:27;;;;;;;15.90;7.53;;;;;;;;;;4977890;28;20026;-83
2022/03/12 10:31:54;;;;;;;16.90;8.73;;;;;;;;;;4976638;28;20022;-83
2022/03/12 10:34:24;;;;;;;17.50;8.35;;;;;;;;;;4976345;28;20038;-82
2022/03/12 10:36:51;;;;;;;15.17;8.23;;;;;;;;;;4975420;28;20498;-85
2022/03/12 10:39:17;;;;;;;15.55;8.77;;;;;;;;;;4958794;28;20292;-85
2022/03/12 10:41:43;;;;;;;15.93;8.50;;;;;;;;;;4975186;28;20564;-85
2022/03/12 10:44:11;;;;;;;14.48;7.38;;;;;;;;;;4976111;28;20026;-86
2022/03/12 10:46:39;;;;;;;12.63;7.35;;;;;;;;;;4958335;28;20027;-82
2022/03/12 10:49:07;;;;;;;14.55;8.15;;;;;;;;;;4975622;28;20050;-84
2022/03/12 10:51:36;;;;;;;12.45;7.70;;;;;;;;;;4974767;28;20510;-84
2022/03/12 10:54:04;;;;;;;13.93;7.72;;;;;;;;;;4978309;28;20038;-86
2022/03/12 10:56:43;;;;;;;11.93;7.47;;;;;;;;;;4997108;28;20023;-92
2022/03/12 10:59:17;;;;;;;12.20;7.13;;;;;;;;;;4998504;28;20051;-91
2022/03/12 11:02:04;;;;;;;10.60;6.65;;;;;;;;;;4981736;28;20018;-93
2022/03/12 11:04:31;;;;;;;12.90;5.97;;;;;;;;;;4981319;28;20046;-93
2022/03/12 11:06:59;;;;;;;9.57;5.40;;;;;;;;;;5000271;28;20039;-93
2022/03/12 11:09:36;;;;;;;11.15;6.25;;;;;;;;;;5017486;28;20010;-92
2022/03/12 11:12:04;;;;;;;10.55;6.10;;;;;;;;;;5000948;28;20023;-94
2022/03/12 11:14:31;;;;;;;8.65;5.20;;;;;;;;;;5001200;28;20007;-93
2022/03/12 11:16:57;;;;;;;12.10;6.53;;;;;;;;;;5017657;28;20018;-92
2022/03/12 11:19:37;;;;;;;24.48;11.82;;;;;;;;;;5017626;28;20097;-93
2022/03/12 11:22:13;;;;;;;17.45;9.90;;;;;;;;;;5012089;28;20022;-84
2022/03/12 11:24:46;;;;;;;13.15;7.30;;;;;;;;;;4979798;28;20438;-84
2022/03/12 11:27:27;;;;;;;11.82;6.63;;;;;;;;;;4998786;28;20027;-83
2022/03/12 11:29:58;;;;;;;9.10;6.15;;;;;;;;;;4982146;28;20034;-84
2022/03/12 11:32:26;;;;;;;10.32;6.25;;;;;;;;;;4980644;28;20037;-83
2022/03/12 11:35:02;;;;;;;15.25;7.05;;;;;;;;;;4980965;28;20026;-86
2022/03/12 11:37:28;;;;;;;11.35;6.65;;;;;;;;;;4997603;28;20513;-82
2022/03/12 11:39:59;;;;;;;15.07;6.65;;;;;;;;;;4999804;28;20031;-89
2022/03/12 11:42:31;;;;;;;10.82;6.35;;;;;;;;;;5013298;28;20042;-85
2022/03/12 11:44:59;;;;;;;8.80;6.25;;;;;;;;;;4980762;28;20125;-83
2022/03/12 11:47:30;;;;;;;14.85;6.47;;;;;;;;;;5002978;28;20014;-84
2022/03/12 11:49:57;;;;;;;9.10;5.40;;;;;;;;;;4981662;28;20110;-84
2022/03/12 11:52:23;;;;;;;8.38;5.90;;;;;;;;;;4979988;28;20043;-83
2022/03/12 11:54:52;;;;;;;13.65;6.03;;;;;;;;;;4997586;28;20026;-82
2022/03/12 11:57:21;;;;;;;9.82;5.68;;;;;;;;;;4997498;28;20019;-83
2022/03/12 11:59:47;;;;;;;11.07;6.13;;;;;;;;;;4997305;28;20049;-83
2022/03/12 12:02:31;;;;;;;17.67;9.40;;;;;;;;;;5020005;28;20030;-93
2022/03/12 12:04:58;;;;;;;15.20;8.32;;;;;;;;;;4997979;28;20022;-92
2022/03/12 12:07:24;;;;;;;19.08;9.35;;;;;;;;;;4984360;28;20542;-92
2022/03/12 12:09:51;;;;;;;15.52;9.60;;;;;;;;;;4984544;28;20014;-92
2022/03/12 12:12:19;;;;;;;22.67;12.27;;;;;;;;;;4984438;28;20011;-93
2022/03/12 12:14:45;;;;;;;21.88;11.40;;;;;;;;;;4984457;28;20095;-91
2022/03/12 12:17:11;;;;;;;21.85;11.50;;;;;;;;;;5007542;28;19999;-90
2022/03/12 12:19:38;;;;;;;20.75;11.05;;;;;;;;;;5020521;28;20030;-92
2022/03/12 12:22:06;;;;;;;19.55;9.93;;;;;;;;;;5020470;28;20095;-90
2022/03/12 12:24:39;;;;;;;19.17;10.65;;;;;;;;;;5020794;28;20102;-91
2022/03/12 12:27:06;;;;;;;22.48;11.18;;;;;;;;;;5003769;28;20022;-89
2022/03/12 12:29:52;;;;;;;19.25;11.02;;;;;;;;;;5020668;28;20061;-91
2022/03/12 12:32:23;;;;;;;25.98;12.70;;;;;;;;;;5020111;28;20014;-93
2022/03/12 12:35:06;;;;;;;20.88;12.60;;;;;;;;;;5019869;28;20097;-92
2022/03/12 12:37:41;;;;;;;25.80;12.07;;;;;;;;;;5020013;28;20022;-92
2022/03/12 12:40:19;;;;;;;30.17;13.82;;;;;;;;;;5004291;28;20027;-84
2022/03/12 12:42:45;;;;;;;20.67;11.98;;;;;;;;;;4983857;28;20125;-84
2022/03/12 12:45:15;;;;;;;24.45;12.23;;;;;;;;;;4999993;28;20030;-84
2022/03/12 12:47:41;;;;;;;22.45;12.55;;;;;;;;;;4982610;28;20037;-85
2022/03/12 12:50:18;;;;;;;23.92;12.68;;;;;;;;;;4982165;28;20033;-85
2022/03/12 12:53:04;;;;;;;24.60;13.73;;;;;;;;;;4999728;28;20679;-84
2022/03/12 12:55:34;;;;;;;21.75;12.73;;;;;;;;;;4999046;28;20022;-84
2022/03/12 12:58:00;;;;;;;23.08;13.00;;;;;;;;;;5000490;28;20027;-84
2022/03/12 13:00:35;;;;;;;23.35;12.93;;;;;;;;;;4981804;28;20033;-85
2022/03/12 13:03:04;;;;;;;21.13;12.45;;;;;;;;;;4999381;28;20026;-84
2022/03/12 13:05:49;;;;;;;20.00;10.80;;;;;;;;;;5000040;28;20026;-84
2022/03/12 13:08:16;;;;;;;20.20;10.68;;;;;;;;;;4998886;28;20402;-84
2022/03/12 13:10:43;;;;;;;20.27;11.07;;;;;;;;;;4999557;28;20549;-85
2022/03/12 13:13:18;;;;;;;24.42;13.57;;;;;;;;;;4982103;28;20026;-85
2022/03/12 13:15:44;;;;;;;23.38;11.80;;;;;;;;;;4981258;28;20030;-84
2022/03/12 13:18:19;;;;;;;23.20;11.07;;;;;;;;;;4984478;28;20046;-85
2022/03/12 13:20:49;;;;;;;19.52;11.10;;;;;;;;;;4978811;28;20050;-85
2022/03/12 13:23:16;;;;;;;23.27;11.95;;;;;;;;;;4961995;28;20027;-85
2022/03/12 13:25:57;;;;;;;19.50;11.40;;;;;;;;;;4978967;28;20084;-84
2022/03/12 13:28:35;;;;;;;19.40;11.63;;;;;;;;;;4979844;28;20035;-84
2022/03/12 13:31:14;;;;;;;24.17;12.52;;;;;;;;;;4978077;28;20030;-84
2022/03/12 13:33:40;;;;;;;22.05;11.63;;;;;;;;;;4977929;28;20399;-85
2022/03/12 13:36:06;;;;;;;23.65;11.45;;;;;;;;;;4978390;28;20026;-84
2022/03/12 13:38:32;;;;;;;17.83;10.23;;;;;;;;;;4978165;28;20109;-85
2022/03/12 13:40:58;;;;;;;18.73;10.82;;;;;;;;;;4978515;28;20062;-85
2022/03/12 13:43:24;;;;;;;22.25;11.10;;;;;;;;;;4978568;28;20033;-81
2022/03/12 13:46:01;;;;;;;18.15;11.52;;;;;;;;;;4961433;28;20078;-84
2022/03/12 13:48:29;;;;;;;21.90;11.80;;;;;;;;;;4978128;28;20142;-84
2022/03/12 13:50:56;;;;;;;20.42;10.38;;;;;;;;;;4978311;28;20031;-84
2022/03/12 13:53:27;;;;;;;21.48;10.40;;;;;;;;;;4961136;28;20062;-83
2022/03/12 13:56:01;;;;;;;16.42;9.68;;;;;;;;;;4977719;28;20301;-83
2022/03/12 13:58:29;;;;;;;21.33;9.48;;;;;;;;;;4959901;28;20057;-83
2022/03/12 14:00:58;;;;;;;16.02;10.10;;;;;;;;;;4961199;28;20019;-83
2022/03/12 14:03:24;;;;;;;18.20;9.30;;;;;;;;;;4978038;28;20023;-85
2022/03/12 14:05:50;;;;;;;15.52;8.82;;;;;;;;;;4991070;28;20492;-87
2022/03/12 14:08:20;;;;;;;23.27;9.75;;;;;;;;;;4980454;28;20552;-84
2022/03/12 14:10:47;;;;;;;17.27;9.20;;;;;;;;;;4981574;28;20030;-84
2022/03/12 14:13:16;;;;;;;15.45;8.00;;;;;;;;;;4998476;28;20037;-83
2022/03/12 14:15:42;;;;;;;13.32;8.02;;;;;;;;;;4981667;28;20390;-82
2022/03/12 14:18:08;;;;;;;10.65;6.90;;;;;;;;;;4985346;28;20035;-84
2022/03/12 14:20:41;;;;;;;12.77;8.13;;;;;;;;;;4962281;28;20046;-83
2022/03/12 14:23:08;;;;;;;10.57;5.97;;;;;;;;;;4961023;28;20023;-83
2022/03/12 14:25:34;;;;;;;14.90;6.97;;;;;;;;;;4976926;28;20023;-84
2022/03/12 14:28:03;;;;;;;16.60;7.15;;;;;;;;;;4960568;28;20177;-84
2022/03/12 14:30:29;;;;;;;15.52;8.57;;;;;;;;;;4984201;28;20027;-84
2022/03/12 14:32:56;;;;;;;13.10;7.80;;;;;;;;;;4962344;28;20030;-85
2022/03/12 14:35:23;;;;;;;13.82;8.13;;;;;;;;;;4965445;28;20058;-83
2022/03/12 14:37:49;;;;;;;11.10;7.22;;;;;;;;;;4978287;28;20090;-85
2022/03/12 14:40:17;;;;;;;15.20;8.18;;;;;;;;;;4979146;28;20083;-84
2022/03/12 14:42:45;;;;;;;14.38;7.25;;;;;;;;;;4979399;28;20069;-86
2022/03/12 14:45:15;;;;;;;16.52;8.40;;;;;;;;;;4978832;28;20034;-85
2022/03/12 14:47:41;;;;;;;13.18;8.35;;;;;;;;;;4961428;28;20552;-84
2022/03/12 14:50:09;;;;;;;13.90;8.63;;;;;;;;;;4961262;28;20047;-86
2022/03/12 14:52:35;;;;;;;13.35;8.43;;;;;;;;;;4978387;28;20402;-84
2022/03/12 14:55:05;;;;;;;12.13;8.40;;;;;;;;;;4961345;28;20399;-85
2022/03/12 14:57:31;;;;;;;16.33;9.10;;;;;;;;;;4978060;28;20463;-85
2022/03/12 14:59:58;;;;;;;17.63;9.00;;;;;;;;;;4963169;28;20027;-85
2022/03/12 15:02:26;;;;;;;14.18;8.60;;;;;;;;;;4987674;28;20050;-87
2022/03/12 15:04:52;;;;;;;14.35;8.55;;;;;;;;;;5004714;28;20019;-88
2022/03/12 15:07:25;;;;;;;16.83;9.95;;;;;;;;;;5005736;28;20038;-86
2022/03/12 15:10:02;;;;;;;14.50;8.73;;;;;;;;;;5004387;28;20030;-86
2022/03/12 15:12:30;;;;;;;14.60;8.82;;;;;;;;;;5003852;28;20081;-86
2022/03/12 15:14:57;;;;;;;11.25;7.65;;;;;;;;;;5003317;28;20121;-85